createdAt,value
2018-12-31T00:02:56.632Z,7.50
2018-12-31T00:05:37.120Z,7.50
2018-12-31T00:08:06.033Z,7.60
2018-12-31T00:10:53.896Z,7.60
2018-12-31T00:13:41.794Z,7.60
2018-12-31T00:16:29.676Z,7.60
2018-12-31T00:19:17.565Z,7.60
2018-12-31T00:22:05.537Z,7.60
2018-12-31T00:24:53.423Z,7.60
2018-12-31T00:27:41.335Z,7.60
2018-12-31T00:30:29.235Z,7.60
2018-12-31T00:33:17.114Z,7.60
2018-12-31T00:36:04.985Z,7.60
2018-12-31T00:38:52.866Z,7.60
2018-12-31T00:41:40.761Z,7.60
2018-12-31T00:44:21.788Z,7.60
2018-12-31T00:47:02.095Z,7.60
2018-12-31T00:49:42.971Z,7.60
2018-12-31T00:52:23.524Z,7.70
2018-12-31T00:55:04.147Z,7.70
2018-12-31T00:57:44.761Z,7.70
2018-12-31T01:00:25.335Z,7.70
2018-12-31T01:03:06.224Z,7.70
2018-12-31T01:08:28.891Z,7.70
2018-12-31T01:11:09.633Z,7.70
2018-12-31T01:13:50.235Z,7.70
2018-12-31T01:16:31.044Z,7.70
2018-12-31T01:19:11.985Z,7.70
2018-12-31T01:21:52.795Z,7.70
2018-12-31T01:24:33.646Z,7.70
2018-12-31T01:27:14.296Z,7.70
2018-12-31T01:29:54.981Z,7.70
2018-12-31T01:32:35.606Z,7.70
2018-12-31T01:35:16.333Z,7.70
2018-12-31T01:37:57.031Z,7.70
2018-12-31T01:40:37.949Z,7.70
2018-12-31T01:43:18.968Z,7.70
2018-12-31T01:45:59.599Z,7.70
2018-12-31T01:48:39.827Z,7.70
2018-12-31T01:51:20.535Z,7.70
2018-12-31T01:54:00.948Z,7.70
2018-12-31T01:56:41.769Z,7.70
2018-12-31T01:59:22.393Z,7.70
2018-12-31T02:02:03.134Z,7.70
2018-12-31T02:04:43.831Z,7.70
2018-12-31T02:07:24.352Z,7.70
2018-12-31T02:10:05.066Z,7.70
2018-12-31T02:12:45.712Z,7.70
2018-12-31T02:15:26.449Z,7.60
2018-12-31T02:18:07.113Z,7.70
2018-12-31T02:20:47.728Z,7.70
2018-12-31T02:23:28.725Z,7.70
2018-12-31T02:26:09.427Z,7.70
2018-12-31T02:28:50.244Z,7.70
2018-12-31T02:31:30.803Z,7.70
2018-12-31T02:34:11.601Z,7.70
2018-12-31T02:36:52.680Z,7.70
2018-12-31T02:39:33.539Z,7.60
2018-12-31T02:42:13.785Z,7.60
2018-12-31T02:44:54.345Z,7.70
2018-12-31T02:47:35.321Z,7.60
2018-12-31T02:50:15.788Z,7.60
2018-12-31T02:55:39.643Z,7.70
2018-12-31T02:58:20.467Z,7.70
2018-12-31T03:01:01.028Z,7.60
2018-12-31T03:03:41.767Z,7.70
2018-12-31T03:06:22.138Z,7.70
2018-12-31T03:09:02.808Z,7.70
2018-12-31T03:11:43.946Z,7.70
2018-12-31T03:14:24.456Z,7.70
2018-12-31T03:17:04.892Z,7.70
2018-12-31T03:19:45.720Z,7.60
2018-12-31T03:22:26.451Z,7.60
2018-12-31T03:25:06.885Z,7.60
2018-12-31T03:27:47.557Z,7.60
2018-12-31T03:30:28.404Z,7.70
2018-12-31T03:33:09.108Z,7.60
2018-12-31T03:35:50.042Z,7.60
2018-12-31T03:38:30.732Z,7.60
2018-12-31T03:41:11.625Z,7.60
2018-12-31T03:43:52.184Z,7.60
2018-12-31T03:46:32.704Z,7.60
2018-12-31T03:49:13.506Z,7.60
2018-12-31T03:51:54.107Z,7.70
2018-12-31T03:54:34.444Z,7.70
2018-12-31T03:57:14.855Z,7.70
2018-12-31T03:59:55.165Z,7.70
2018-12-31T04:02:35.558Z,7.70
2018-12-31T04:05:15.925Z,7.70
2018-12-31T04:07:56.456Z,7.70
2018-12-31T04:10:37.240Z,7.70
2018-12-31T04:13:17.748Z,7.70
2018-12-31T04:15:58.468Z,7.70
2018-12-31T04:18:39.005Z,7.70
2018-12-31T04:21:19.715Z,7.70
2018-12-31T04:24:00.107Z,7.70
2018-12-31T04:26:40.871Z,7.70
2018-12-31T04:29:21.388Z,7.70
2018-12-31T04:32:02.654Z,7.70
2018-12-31T04:34:43.101Z,7.70
2018-12-31T04:37:24.303Z,7.70
2018-12-31T04:40:04.846Z,7.70
2018-12-31T04:42:45.815Z,7.70
2018-12-31T04:45:26.503Z,7.70
2018-12-31T04:48:07.057Z,7.70
2018-12-31T04:50:47.443Z,7.70
2018-12-31T04:53:28.057Z,7.60
2018-12-31T04:56:08.796Z,7.60
2018-12-31T04:58:49.268Z,7.70
2018-12-31T05:01:29.732Z,7.70
2018-12-31T05:04:10.288Z,7.70
2018-12-31T05:06:50.940Z,7.70
2018-12-31T05:09:31.346Z,7.70
2018-12-31T05:12:12.152Z,7.70
2018-12-31T05:14:52.649Z,7.70
2018-12-31T05:17:33.600Z,7.70
2018-12-31T05:20:13.998Z,7.70
2018-12-31T05:22:54.395Z,7.70
2018-12-31T05:25:35.074Z,7.70
2018-12-31T05:28:15.739Z,7.70
2018-12-31T05:30:56.479Z,7.70
2018-12-31T05:33:37.300Z,7.70
2018-12-31T05:36:17.775Z,7.70
2018-12-31T05:38:58.242Z,7.80
2018-12-31T05:41:38.836Z,7.70
2018-12-31T05:44:19.864Z,7.70
2018-12-31T05:47:00.329Z,7.70
2018-12-31T05:49:40.581Z,7.70
2018-12-31T05:52:21.412Z,7.80
2018-12-31T05:55:02.292Z,7.80
2018-12-31T05:57:42.807Z,7.80
2018-12-31T06:00:23.847Z,7.80
2018-12-31T06:03:04.634Z,7.80
2018-12-31T06:05:45.319Z,7.80
2018-12-31T06:08:25.728Z,7.80
2018-12-31T06:11:06.380Z,7.80
2018-12-31T06:13:47.446Z,7.80
2018-12-31T06:16:28.121Z,7.80
2018-12-31T06:19:08.643Z,7.80
2018-12-31T06:21:49.427Z,7.80
2018-12-31T06:24:30.061Z,7.90
2018-12-31T06:27:10.923Z,7.80
2018-12-31T06:29:51.648Z,7.80
2018-12-31T06:32:32.157Z,7.90
2018-12-31T06:35:12.473Z,7.80
2018-12-31T06:37:53.065Z,7.80
2018-12-31T06:40:33.848Z,7.80
2018-12-31T06:43:14.535Z,7.90
2018-12-31T06:45:54.936Z,7.90
2018-12-31T06:48:35.479Z,7.90
2018-12-31T06:51:16.267Z,7.90
2018-12-31T06:53:57.031Z,7.90
2018-12-31T06:56:38.028Z,7.90
2018-12-31T06:59:18.552Z,7.90
2018-12-31T07:01:59.271Z,7.90
2018-12-31T07:04:39.991Z,7.90
2018-12-31T07:07:20.667Z,7.90
2018-12-31T07:10:01.015Z,7.90
2018-12-31T07:12:41.755Z,8.00
2018-12-31T07:15:10.399Z,8.00
2018-12-31T07:17:58.288Z,8.00
2018-12-31T07:20:46.162Z,8.00
2018-12-31T07:23:34.055Z,8.00
2018-12-31T07:26:21.948Z,8.00
2018-12-31T07:29:09.853Z,8.00
2018-12-31T07:31:57.735Z,8.00
2018-12-31T07:34:45.627Z,8.00
2018-12-31T07:37:26.704Z,8.00
2018-12-31T07:40:07.301Z,8.00
2018-12-31T07:42:48.231Z,8.00
2018-12-31T07:48:11.340Z,8.00
2018-12-31T07:50:52.153Z,8.00
2018-12-31T07:53:32.766Z,8.00
2018-12-31T07:56:13.475Z,8.10
2018-12-31T07:58:54.129Z,8.10
2018-12-31T08:01:34.747Z,8.10
2018-12-31T08:04:16.119Z,8.10
2018-12-31T08:06:56.904Z,8.10
2018-12-31T08:09:37.512Z,8.10
2018-12-31T08:12:17.927Z,8.10
2018-12-31T08:14:58.525Z,8.10
2018-12-31T08:17:39.024Z,8.10
2018-12-31T08:20:19.458Z,8.20
2018-12-31T08:23:00.076Z,8.20
2018-12-31T08:25:40.803Z,8.20
2018-12-31T08:28:22.118Z,8.20
2018-12-31T08:31:03.186Z,8.20
2018-12-31T08:33:43.860Z,8.30
2018-12-31T08:36:24.392Z,8.30
2018-12-31T08:39:04.754Z,8.30
2018-12-31T08:41:45.300Z,8.30
2018-12-31T08:44:25.617Z,8.30
2018-12-31T08:47:06.331Z,8.40
2018-12-31T08:49:49.702Z,8.40
2018-12-31T08:52:30.527Z,8.40
2018-12-31T08:55:10.900Z,8.40
2018-12-31T08:57:51.862Z,8.40
2018-12-31T09:03:15.793Z,8.50
2018-12-31T09:05:56.279Z,8.50
2018-12-31T09:08:36.798Z,8.50
2018-12-31T09:11:17.157Z,8.50
2018-12-31T09:13:58.205Z,8.50
2018-12-31T09:16:39.016Z,8.60
2018-12-31T09:19:19.591Z,8.60
2018-12-31T09:22:00.044Z,8.60
2018-12-31T09:24:44.600Z,8.60
2018-12-31T09:27:23.701Z,8.60
2018-12-31T09:30:04.448Z,8.70
2018-12-31T09:32:44.865Z,8.60
2018-12-31T09:38:08.434Z,8.60
2018-12-31T09:40:48.767Z,8.70
2018-12-31T09:43:29.187Z,8.70
2018-12-31T09:46:09.893Z,8.70
2018-12-31T09:48:50.508Z,8.70
2018-12-31T09:51:31.640Z,8.70
2018-12-31T09:54:12.405Z,8.80
2018-12-31T09:56:53.743Z,8.80
2018-12-31T09:59:34.072Z,8.80
2018-12-31T10:02:14.792Z,8.70
2018-12-31T10:04:55.484Z,8.80
2018-12-31T10:07:35.904Z,8.80
2018-12-31T10:10:16.539Z,8.90
2018-12-31T10:12:56.799Z,8.90
2018-12-31T10:15:37.329Z,8.90
2018-12-31T10:18:18.094Z,8.90
2018-12-31T10:20:58.659Z,8.90
2018-12-31T10:23:39.279Z,8.90
2018-12-31T10:26:19.581Z,8.90
2018-12-31T10:29:00.380Z,9.00
2018-12-31T10:31:40.816Z,9.00
2018-12-31T10:34:21.411Z,9.00
2018-12-31T10:37:02.697Z,9.00
2018-12-31T10:39:43.692Z,9.00
2018-12-31T10:42:24.223Z,9.00
2018-12-31T10:45:04.892Z,9.00
2018-12-31T10:47:45.377Z,9.00
2018-12-31T10:50:25.908Z,9.10
2018-12-31T10:53:06.539Z,9.10
2018-12-31T10:55:46.905Z,9.00
2018-12-31T10:58:27.340Z,9.10
2018-12-31T11:01:07.667Z,9.10
2018-12-31T11:03:48.092Z,9.10
2018-12-31T11:06:29.228Z,9.20
2018-12-31T11:09:09.817Z,9.20
2018-12-31T11:11:50.461Z,9.20
2018-12-31T11:14:31.022Z,9.20
2018-12-31T11:17:11.785Z,9.30
2018-12-31T11:19:52.691Z,9.20
2018-12-31T11:22:33.703Z,9.20
2018-12-31T11:25:14.220Z,9.20
2018-12-31T11:27:55.097Z,9.20
2018-12-31T11:30:36.083Z,9.20
2018-12-31T11:36:29.777Z,9.20
2018-12-31T11:39:10.096Z,9.20
2018-12-31T11:41:50.824Z,9.20
2018-12-31T11:44:31.555Z,9.20
2018-12-31T11:47:12.141Z,9.20
2018-12-31T11:49:52.612Z,9.20
2018-12-31T11:52:32.867Z,9.20
2018-12-31T11:55:14.004Z,9.10
2018-12-31T11:57:54.787Z,9.10
2018-12-31T12:00:35.907Z,9.00
2018-12-31T12:03:16.568Z,9.00
2018-12-31T12:05:57.139Z,9.00
2018-12-31T12:08:37.835Z,9.00
2018-12-31T12:11:18.288Z,9.00
2018-12-31T12:13:58.998Z,9.00
2018-12-31T12:16:39.302Z,9.00
2018-12-31T12:19:20.023Z,9.00
2018-12-31T12:22:00.400Z,9.00
2018-12-31T12:24:41.096Z,9.10
2018-12-31T12:27:21.415Z,9.10
2018-12-31T12:30:01.869Z,9.10
2018-12-31T12:32:42.479Z,9.10
2018-12-31T12:35:23.167Z,9.10
2018-12-31T12:38:03.511Z,9.10
2018-12-31T12:40:44.543Z,9.10
2018-12-31T12:46:08.011Z,9.10
2018-12-31T12:48:48.603Z,9.10
2018-12-31T12:51:29.258Z,9.10
2018-12-31T12:54:10.236Z,9.10
2018-12-31T12:56:50.724Z,9.10
2018-12-31T12:59:31.351Z,9.10
2018-12-31T13:02:12.123Z,9.10
2018-12-31T13:04:52.750Z,9.10
2018-12-31T13:07:33.434Z,9.10
2018-12-31T13:10:14.018Z,9.10
2018-12-31T13:12:54.595Z,9.10
2018-12-31T13:15:35.323Z,9.10
2018-12-31T13:18:15.727Z,9.10
2018-12-31T13:20:58.855Z,9.10
2018-12-31T13:23:39.820Z,9.10
2018-12-31T13:26:20.563Z,9.20
2018-12-31T13:29:01.763Z,9.10
2018-12-31T13:31:42.568Z,9.10
2018-12-31T13:34:23.036Z,9.10
2018-12-31T13:37:03.631Z,9.10
2018-12-31T13:39:44.031Z,9.10
2018-12-31T13:42:23.011Z,9.10
2018-12-31T13:45:11.160Z,9.10
2018-12-31T13:47:59.324Z,9.10
2018-12-31T13:50:48.959Z,9.20
2018-12-31T13:53:31.482Z,9.20
2018-12-31T13:56:12.617Z,9.20
2018-12-31T13:58:53.420Z,9.20
2018-12-31T14:01:34.071Z,9.20
2018-12-31T14:04:14.833Z,9.20
2018-12-31T14:06:55.483Z,9.20
2018-12-31T14:09:36.347Z,9.20
2018-12-31T14:12:17.025Z,9.20
2018-12-31T14:14:57.940Z,9.20
2018-12-31T14:17:38.697Z,9.20
2018-12-31T14:20:19.183Z,9.20
2018-12-31T14:22:59.732Z,9.20
2018-12-31T14:25:40.524Z,9.20
2018-12-31T14:28:21.290Z,9.20
2018-12-31T14:31:02.225Z,9.30
2018-12-31T14:33:42.952Z,9.30
2018-12-31T14:36:23.820Z,9.20
2018-12-31T14:39:05.095Z,9.30
2018-12-31T14:41:46.215Z,9.30
2018-12-31T14:44:26.860Z,9.30
2018-12-31T14:47:07.611Z,9.30
2018-12-31T14:52:31.471Z,9.30
2018-12-31T14:55:11.752Z,9.30
2018-12-31T14:57:52.466Z,9.30
2018-12-31T15:00:33.036Z,9.30
2018-12-31T15:03:13.991Z,9.30
2018-12-31T15:08:37.560Z,9.30
2018-12-31T15:11:18.115Z,9.30
2018-12-31T15:13:58.523Z,9.30
2018-12-31T15:16:39.087Z,9.40
2018-12-31T15:19:19.394Z,9.30
2018-12-31T15:22:00.181Z,9.30
2018-12-31T15:24:40.632Z,9.40
2018-12-31T15:27:21.112Z,9.40
2018-12-31T15:30:01.653Z,9.40
2018-12-31T15:32:42.169Z,9.40
2018-12-31T15:35:22.522Z,9.30
2018-12-31T15:38:03.195Z,9.40
2018-12-31T15:40:43.572Z,9.40
2018-12-31T15:43:24.213Z,9.30
2018-12-31T15:46:04.502Z,9.40
2018-12-31T15:48:45.155Z,9.30
2018-12-31T15:51:25.825Z,9.30
2018-12-31T15:54:06.437Z,9.30
2018-12-31T15:56:47.141Z,9.30
2018-12-31T15:59:27.613Z,9.30
2018-12-31T16:02:08.187Z,9.30
2018-12-31T16:04:48.679Z,9.30
2018-12-31T16:10:12.496Z,9.30
2018-12-31T16:12:54.040Z,9.30
2018-12-31T16:15:34.540Z,9.30
2018-12-31T16:18:15.066Z,9.30
2018-12-31T16:20:55.774Z,9.30
2018-12-31T16:23:36.451Z,9.30
2018-12-31T16:26:16.755Z,9.30
2018-12-31T16:28:57.339Z,9.30
2018-12-31T16:31:37.990Z,9.30
2018-12-31T16:34:18.617Z,9.30
2018-12-31T16:36:58.918Z,9.30
2018-12-31T16:39:39.617Z,9.30
2018-12-31T16:42:21.108Z,9.30
2018-12-31T16:45:02.580Z,9.30
2018-12-31T16:47:43.573Z,9.30
2018-12-31T16:50:24.226Z,9.30
2018-12-31T16:53:04.803Z,9.30
2018-12-31T16:55:47.384Z,9.30
2018-12-31T16:58:28.134Z,9.30
2018-12-31T17:01:08.777Z,9.30
2018-12-31T17:03:49.812Z,9.30
2018-12-31T17:06:30.050Z,9.30
2018-12-31T17:09:10.867Z,9.30
2018-12-31T17:11:51.243Z,9.30
2018-12-31T17:14:32.192Z,9.30
2018-12-31T17:17:12.739Z,9.30
2018-12-31T17:19:53.279Z,9.30
2018-12-31T17:22:33.829Z,9.30
2018-12-31T17:25:14.860Z,9.30
2018-12-31T17:27:55.493Z,9.30
2018-12-31T17:30:35.807Z,9.30
2018-12-31T17:33:16.934Z,9.20
2018-12-31T17:35:57.459Z,9.30
2018-12-31T17:38:38.047Z,9.30
2018-12-31T17:41:18.464Z,9.30
2018-12-31T17:43:58.981Z,9.30
2018-12-31T17:46:40.982Z,9.30
2018-12-31T17:49:21.352Z,9.30
2018-12-31T17:52:02.070Z,9.30
2018-12-31T17:54:42.872Z,9.30
2018-12-31T17:57:23.215Z,9.20
2018-12-31T18:00:04.091Z,9.30
2018-12-31T18:02:44.987Z,9.30
2018-12-31T18:05:25.686Z,9.30
2018-12-31T18:08:06.454Z,9.30
2018-12-31T18:10:46.991Z,9.30
2018-12-31T18:13:27.787Z,9.30
2018-12-31T18:16:08.647Z,9.30
2018-12-31T18:18:49.359Z,9.30
2018-12-31T18:21:30.012Z,9.20
2018-12-31T18:24:10.695Z,9.20
2018-12-31T18:26:51.472Z,9.20
2018-12-31T18:29:32.200Z,9.20
2018-12-31T18:32:12.924Z,9.30
2018-12-31T18:34:53.704Z,9.30
2018-12-31T18:37:41.475Z,9.20
2018-12-31T18:40:17.043Z,9.30
2018-12-31T18:42:57.511Z,9.30
2018-12-31T18:45:38.411Z,9.30
2018-12-31T18:48:19.380Z,9.30
2018-12-31T18:50:59.857Z,9.30
2018-12-31T18:53:40.515Z,9.30
2018-12-31T18:56:21.051Z,9.30
2018-12-31T18:59:01.572Z,9.30
2018-12-31T19:01:42.557Z,9.30
2018-12-31T19:04:23.624Z,9.30
2018-12-31T19:09:47.252Z,9.30
2018-12-31T19:12:27.859Z,9.30
2018-12-31T19:15:08.175Z,9.30
2018-12-31T19:17:48.599Z,9.30
2018-12-31T19:20:29.047Z,9.20
2018-12-31T19:23:09.715Z,9.20
2018-12-31T19:25:50.375Z,9.30
2018-12-31T19:31:14.481Z,9.20
2018-12-31T19:33:54.944Z,9.20
2018-12-31T19:36:35.596Z,9.20
2018-12-31T19:39:15.923Z,9.30
2018-12-31T19:41:57.023Z,9.30
2018-12-31T19:44:37.654Z,9.30
2018-12-31T19:47:18.140Z,9.20
2018-12-31T19:49:58.656Z,9.30
2018-12-31T19:52:39.375Z,9.20
2018-12-31T19:55:20.054Z,9.30
2018-12-31T19:58:01.320Z,9.20
2018-12-31T20:00:41.814Z,9.20
2018-12-31T20:03:22.418Z,9.30
2018-12-31T20:06:02.985Z,9.30
2018-12-31T20:08:43.344Z,9.30
2018-12-31T20:11:23.923Z,9.20
2018-12-31T20:14:05.084Z,9.20
2018-12-31T20:16:45.581Z,9.20
2018-12-31T20:19:26.116Z,9.20
2018-12-31T20:22:06.645Z,9.20
2018-12-31T20:24:47.284Z,9.20
2018-12-31T20:27:28.267Z,9.20
2018-12-31T20:30:09.012Z,9.20
2018-12-31T20:32:49.406Z,9.20
2018-12-31T20:35:30.650Z,9.20
2018-12-31T20:38:11.289Z,9.20
2018-12-31T20:40:51.736Z,9.20
2018-12-31T20:43:32.259Z,9.20
2018-12-31T20:46:12.720Z,9.20
2018-12-31T20:48:53.116Z,9.20
2018-12-31T20:51:33.459Z,9.20
2018-12-31T20:54:14.045Z,9.20
2018-12-31T20:56:54.784Z,9.10
2018-12-31T21:02:18.593Z,9.00
2018-12-31T21:04:59.044Z,9.00
2018-12-31T21:07:39.523Z,9.00
2018-12-31T21:10:20.150Z,9.00
2018-12-31T21:13:01.464Z,9.00
2018-12-31T21:18:25.496Z,9.00
2018-12-31T21:21:06.064Z,9.00
2018-12-31T21:23:46.831Z,9.00
2018-12-31T21:26:27.337Z,9.00
2018-12-31T21:29:07.956Z,8.90
2018-12-31T21:31:51.103Z,9.00
2018-12-31T21:34:31.872Z,9.00
2018-12-31T21:37:12.189Z,9.00
2018-12-31T21:39:52.868Z,9.00
2018-12-31T21:42:33.443Z,9.00
2018-12-31T21:45:13.907Z,9.00
2018-12-31T21:47:54.896Z,9.00
2018-12-31T21:50:35.244Z,9.00
2018-12-31T21:53:16.412Z,9.00
2018-12-31T21:58:40.060Z,9.00
2018-12-31T22:01:20.672Z,9.00
2018-12-31T22:04:03.207Z,9.00
2018-12-31T22:06:44.356Z,9.00
2018-12-31T22:09:24.911Z,8.90
2018-12-31T22:12:05.241Z,8.90
2018-12-31T22:14:46.093Z,8.90
2018-12-31T22:17:26.816Z,8.90
2018-12-31T22:20:07.529Z,8.90
2018-12-31T22:22:48.017Z,8.80
2018-12-31T22:25:27.460Z,8.90
2018-12-31T22:28:15.409Z,8.80
2018-12-31T22:31:03.522Z,8.80
2018-12-31T22:33:51.448Z,8.80
2018-12-31T22:36:39.378Z,8.80
2018-12-31T22:39:27.291Z,8.90
2018-12-31T22:42:15.186Z,8.90
2018-12-31T22:45:03.089Z,8.80
2018-12-31T22:47:50.975Z,8.80
2018-12-31T22:50:38.869Z,8.90
2018-12-31T22:53:27.001Z,8.80
2018-12-31T22:56:15.113Z,8.90
2018-12-31T22:59:02.998Z,8.90
2018-12-31T23:01:52.595Z,8.90
2018-12-31T23:04:40.484Z,8.90
2018-12-31T23:07:30.095Z,8.90
2018-12-31T23:10:19.748Z,8.90
2018-12-31T23:13:09.373Z,8.80
2018-12-31T23:15:57.332Z,8.80
2018-12-31T23:18:46.934Z,8.90
2018-12-31T23:21:34.819Z,8.90
2018-12-31T23:27:18.670Z,9.00
2018-12-31T23:30:08.961Z,9.00
2018-12-31T23:32:56.866Z,9.00
2018-12-31T23:35:46.463Z,9.00
2018-12-31T23:38:34.366Z,9.00
2018-12-31T23:41:22.258Z,9.00
2018-12-31T23:44:10.148Z,9.00
2018-12-31T23:50:07.388Z,8.90
2018-12-31T23:52:55.503Z,8.90
2018-12-31T23:55:43.393Z,8.90
2018-12-31T23:58:31.521Z,8.80
